sensor_id;sensor_type;location;lat;lon;timestamp;temperature;humidity
11824;DHT22;5969;50.780;7.726;2022-12-18T00:01:58;-7.30;99.90
11824;DHT22;5969;50.780;7.726;2022-12-18T00:04:26;-7.30;99.90
11824;DHT22;5969;50.780;7.726;2022-12-18T00:06:55;-7.30;99.90
11824;DHT22;5969;50.780;7.726;2022-12-18T00:09:22;-7.40;99.90
11824;DHT22;5969;50.780;7.726;2022-12-18T00:11:49;-7.40;99.90
11824;DHT22;5969;50.780;7.726;2022-12-18T00:14:16;-7.40;99.90
11824;DHT22;5969;50.780;7.726;2022-12-18T00:16:44;-7.50;99.90
11824;DHT22;5969;50.780;7.726;2022-12-18T00:19:11;-7.40;99.90
11824;DHT22;5969;50.780;7.726;2022-12-18T00:21:38;-7.50;99.90
11824;DHT22;5969;50.780;7.726;2022-12-18T00:24:07;-7.40;99.90
11824;DHT22;5969;50.780;7.726;2022-12-18T00:26:35;-7.50;99.90
11824;DHT22;5969;50.780;7.726;2022-12-18T00:29:04;-7.50;99.90
11824;DHT22;5969;50.780;7.726;2022-12-18T00:31:32;-7.60;99.90
11824;DHT22;5969;50.780;7.726;2022-12-18T00:33:59;-7.50;99.90
11824;DHT22;5969;50.780;7.726;2022-12-18T00:36:27;-7.50;99.90
11824;DHT22;5969;50.780;7.726;2022-12-18T00:38:56;-7.60;99.90
11824;DHT22;5969;50.780;7.726;2022-12-18T00:41:25;-7.60;99.90
11824;DHT22;5969;50.780;7.726;2022-12-18T00:44:11;-7.60;99.90
11824;DHT22;5969;50.780;7.726;2022-12-18T00:46:39;-7.50;99.90
11824;DHT22;5969;50.780;7.726;2022-12-18T00:49:06;-7.50;99.90
11824;DHT22;5969;50.780;7.726;2022-12-18T00:51:33;-7.60;99.90
11824;DHT22;5969;50.780;7.726;2022-12-18T00:54:00;-7.70;99.90
11824;DHT22;5969;50.780;7.726;2022-12-18T00:56:28;-7.80;99.90
11824;DHT22;5969;50.780;7.726;2022-12-18T00:58:55;-7.80;99.90
11824;DHT22;5969;50.780;7.726;2022-12-18T01:01:21;-7.80;99.90
11824;DHT22;5969;50.780;7.726;2022-12-18T01:03:48;-7.80;99.90
11824;DHT22;5969;50.780;7.726;2022-12-18T01:06:16;-7.80;99.90
11824;DHT22;5969;50.780;7.726;2022-12-18T01:08:43;-7.90;99.90
11824;DHT22;5969;50.780;7.726;2022-12-18T01:11:12;-7.90;99.90
11824;DHT22;5969;50.780;7.726;2022-12-18T01:13:40;-7.90;99.90
11824;DHT22;5969;50.780;7.726;2022-12-18T01:16:08;-7.90;99.90
11824;DHT22;5969;50.780;7.726;2022-12-18T01:18:39;-7.80;99.90
11824;DHT22;5969;50.780;7.726;2022-12-18T01:21:07;-7.70;99.90
11824;DHT22;5969;50.780;7.726;2022-12-18T01:23:35;-7.80;99.90
11824;DHT22;5969;50.780;7.726;2022-12-18T01:26:05;-7.80;99.90
11824;DHT22;5969;50.780;7.726;2022-12-18T01:28:32;-7.80;99.90
11824;DHT22;5969;50.780;7.726;2022-12-18T01:31:14;-7.80;99.90
11824;DHT22;5969;50.780;7.726;2022-12-18T01:33:41;-8.00;99.90
11824;DHT22;5969;50.780;7.726;2022-12-18T01:36:14;-8.10;99.90
11824;DHT22;5969;50.780;7.726;2022-12-18T01:38:41;-8.10;99.90
11824;DHT22;5969;50.780;7.726;2022-12-18T01:41:08;-8.10;99.90
11824;DHT22;5969;50.780;7.726;2022-12-18T01:43:49;-8.10;99.90
11824;DHT22;5969;50.780;7.726;2022-12-18T01:46:20;-8.10;99.90
11824;DHT22;5969;50.780;7.726;2022-12-18T01:48:52;-8.00;99.90
11824;DHT22;5969;50.780;7.726;2022-12-18T01:51:19;-8.00;99.90
11824;DHT22;5969;50.780;7.726;2022-12-18T01:53:48;-8.10;99.90
11824;DHT22;5969;50.780;7.726;2022-12-18T01:56:17;-8.00;99.90
11824;DHT22;5969;50.780;7.726;2022-12-18T01:58:51;-8.00;99.90
11824;DHT22;5969;50.780;7.726;2022-12-18T02:01:23;-8.00;99.90
11824;DHT22;5969;50.780;7.726;2022-12-18T02:03:50;-8.00;99.90
11824;DHT22;5969;50.780;7.726;2022-12-18T02:06:20;-8.00;99.90
11824;DHT22;5969;50.780;7.726;2022-12-18T02:08:57;-8.00;99.90
11824;DHT22;5969;50.780;7.726;2022-12-18T02:11:36;-7.90;99.90
11824;DHT22;5969;50.780;7.726;2022-12-18T02:14:16;-7.80;99.90
11824;DHT22;5969;50.780;7.726;2022-12-18T02:16:51;-7.80;99.90
11824;DHT22;5969;50.780;7.726;2022-12-18T02:19:35;-7.80;99.90
11824;DHT22;5969;50.780;7.726;2022-12-18T02:22:16;-7.80;99.90
11824;DHT22;5969;50.780;7.726;2022-12-18T02:24:54;-7.70;99.90
11824;DHT22;5969;50.780;7.726;2022-12-18T02:27:27;-7.80;99.90
11824;DHT22;5969;50.780;7.726;2022-12-18T02:29:55;-7.90;99.90
11824;DHT22;5969;50.780;7.726;2022-12-18T02:32:26;-8.10;99.90
11824;DHT22;5969;50.780;7.726;2022-12-18T02:34:56;-8.00;99.90
11824;DHT22;5969;50.780;7.726;2022-12-18T02:37:25;-8.10;99.90
11824;DHT22;5969;50.780;7.726;2022-12-18T02:39:54;-8.10;99.90
11824;DHT22;5969;50.780;7.726;2022-12-18T02:42:22;-8.10;99.90
11824;DHT22;5969;50.780;7.726;2022-12-18T02:44:51;-8.10;99.90
11824;DHT22;5969;50.780;7.726;2022-12-18T02:47:24;-8.00;99.90
11824;DHT22;5969;50.780;7.726;2022-12-18T02:49:59;-8.10;99.90
11824;DHT22;5969;50.780;7.726;2022-12-18T02:52:34;-8.00;99.90
11824;DHT22;5969;50.780;7.726;2022-12-18T02:55:13;-8.00;99.90
11824;DHT22;5969;50.780;7.726;2022-12-18T02:57:46;-8.10;99.90
11824;DHT22;5969;50.780;7.726;2022-12-18T03:00:19;-8.20;99.90
11824;DHT22;5969;50.780;7.726;2022-12-18T03:02:50;-8.20;99.90
11824;DHT22;5969;50.780;7.726;2022-12-18T03:05:22;-8.20;99.90
11824;DHT22;5969;50.780;7.726;2022-12-18T03:07:55;-8.30;99.90
11824;DHT22;5969;50.780;7.726;2022-12-18T03:10:26;-8.30;99.90
11824;DHT22;5969;50.780;7.726;2022-12-18T03:12:59;-8.30;99.90
11824;DHT22;5969;50.780;7.726;2022-12-18T03:15:31;-8.30;99.90
11824;DHT22;5969;50.780;7.726;2022-12-18T03:18:04;-8.30;99.90
11824;DHT22;5969;50.780;7.726;2022-12-18T03:20:32;-8.40;99.90
11824;DHT22;5969;50.780;7.726;2022-12-18T03:23:06;-8.50;99.90
11824;DHT22;5969;50.780;7.726;2022-12-18T03:25:35;-8.40;99.90
11824;DHT22;5969;50.780;7.726;2022-12-18T03:28:05;-8.30;99.90
11824;DHT22;5969;50.780;7.726;2022-12-18T03:30:37;-8.20;99.90
11824;DHT22;5969;50.780;7.726;2022-12-18T03:33:08;-8.00;99.90
11824;DHT22;5969;50.780;7.726;2022-12-18T03:35:40;-8.10;99.90
11824;DHT22;5969;50.780;7.726;2022-12-18T03:38:09;-8.30;99.90
11824;DHT22;5969;50.780;7.726;2022-12-18T03:40:44;-8.20;99.90
11824;DHT22;5969;50.780;7.726;2022-12-18T03:43:18;-8.20;99.90
11824;DHT22;5969;50.780;7.726;2022-12-18T03:45:52;-8.10;99.90
11824;DHT22;5969;50.780;7.726;2022-12-18T03:48:26;-8.10;99.90
11824;DHT22;5969;50.780;7.726;2022-12-18T03:50:57;-8.10;99.90
11824;DHT22;5969;50.780;7.726;2022-12-18T03:53:32;-8.10;99.90
11824;DHT22;5969;50.780;7.726;2022-12-18T03:56:04;-8.10;99.90
11824;DHT22;5969;50.780;7.726;2022-12-18T03:58:33;-8.00;99.90
11824;DHT22;5969;50.780;7.726;2022-12-18T04:01:05;-7.90;99.90
11824;DHT22;5969;50.780;7.726;2022-12-18T04:03:35;-7.90;99.90
11824;DHT22;5969;50.780;7.726;2022-12-18T04:06:03;-7.90;99.90
11824;DHT22;5969;50.780;7.726;2022-12-18T04:08:32;-8.10;99.90
11824;DHT22;5969;50.780;7.726;2022-12-18T04:11:00;-8.10;99.90
11824;DHT22;5969;50.780;7.726;2022-12-18T04:13:29;-8.10;99.90
11824;DHT22;5969;50.780;7.726;2022-12-18T04:15:56;-8.10;99.90
11824;DHT22;5969;50.780;7.726;2022-12-18T04:18:24;-8.00;99.90
11824;DHT22;5969;50.780;7.726;2022-12-18T04:20:51;-8.00;99.90
11824;DHT22;5969;50.780;7.726;2022-12-18T04:23:18;-8.00;99.90
11824;DHT22;5969;50.780;7.726;2022-12-18T04:25:46;-8.10;99.90
11824;DHT22;5969;50.780;7.726;2022-12-18T04:28:13;-8.00;99.90
11824;DHT22;5969;50.780;7.726;2022-12-18T04:30:40;-8.00;99.90
11824;DHT22;5969;50.780;7.726;2022-12-18T04:33:09;-8.00;99.90
11824;DHT22;5969;50.780;7.726;2022-12-18T04:35:38;-8.10;99.90
11824;DHT22;5969;50.780;7.726;2022-12-18T04:38:05;-8.10;99.90
11824;DHT22;5969;50.780;7.726;2022-12-18T04:40:33;-8.10;99.90
11824;DHT22;5969;50.780;7.726;2022-12-18T04:43:00;-8.10;99.90
11824;DHT22;5969;50.780;7.726;2022-12-18T04:45:27;-8.10;99.90
11824;DHT22;5969;50.780;7.726;2022-12-18T04:47:54;-8.00;99.90
11824;DHT22;5969;50.780;7.726;2022-12-18T04:50:21;-8.00;99.90
11824;DHT22;5969;50.780;7.726;2022-12-18T04:52:49;-8.00;99.90
11824;DHT22;5969;50.780;7.726;2022-12-18T04:55:16;-7.90;99.90
11824;DHT22;5969;50.780;7.726;2022-12-18T04:57:43;-7.90;99.90
11824;DHT22;5969;50.780;7.726;2022-12-18T05:00:10;-7.90;99.90
11824;DHT22;5969;50.780;7.726;2022-12-18T05:02:38;-7.90;99.90
11824;DHT22;5969;50.780;7.726;2022-12-18T05:05:05;-7.90;99.90
11824;DHT22;5969;50.780;7.726;2022-12-18T05:07:32;-7.90;99.90
11824;DHT22;5969;50.780;7.726;2022-12-18T05:10:01;-7.80;99.90
11824;DHT22;5969;50.780;7.726;2022-12-18T05:12:27;-7.80;99.90
11824;DHT22;5969;50.780;7.726;2022-12-18T05:14:54;-7.80;99.90
11824;DHT22;5969;50.780;7.726;2022-12-18T05:17:21;-7.80;99.90
11824;DHT22;5969;50.780;7.726;2022-12-18T05:19:48;-7.80;99.90
11824;DHT22;5969;50.780;7.726;2022-12-18T05:22:15;-7.60;99.90
11824;DHT22;5969;50.780;7.726;2022-12-18T05:24:41;-7.60;99.90
11824;DHT22;5969;50.780;7.726;2022-12-18T05:27:09;-7.60;99.90
11824;DHT22;5969;50.780;7.726;2022-12-18T05:29:36;-7.50;99.90
11824;DHT22;5969;50.780;7.726;2022-12-18T05:32:04;-7.50;99.90
11824;DHT22;5969;50.780;7.726;2022-12-18T05:34:30;-7.50;99.90
11824;DHT22;5969;50.780;7.726;2022-12-18T05:36:58;-7.50;99.90
11824;DHT22;5969;50.780;7.726;2022-12-18T05:39:25;-7.50;99.90
11824;DHT22;5969;50.780;7.726;2022-12-18T05:41:52;-7.50;99.90
11824;DHT22;5969;50.780;7.726;2022-12-18T05:44:20;-7.50;99.90
11824;DHT22;5969;50.780;7.726;2022-12-18T05:46:47;-7.50;99.90
11824;DHT22;5969;50.780;7.726;2022-12-18T05:49:14;-7.50;99.90
11824;DHT22;5969;50.780;7.726;2022-12-18T05:51:40;-7.50;99.90
11824;DHT22;5969;50.780;7.726;2022-12-18T05:54:07;-7.50;99.90
11824;DHT22;5969;50.780;7.726;2022-12-18T05:56:34;-7.50;99.90
11824;DHT22;5969;50.780;7.726;2022-12-18T05:59:01;-7.60;99.90
11824;DHT22;5969;50.780;7.726;2022-12-18T06:01:29;-7.70;99.90
11824;DHT22;5969;50.780;7.726;2022-12-18T06:03:56;-7.60;99.90
11824;DHT22;5969;50.780;7.726;2022-12-18T06:06:25;-7.60;99.90
11824;DHT22;5969;50.780;7.726;2022-12-18T06:08:53;-7.60;99.90
11824;DHT22;5969;50.780;7.726;2022-12-18T06:11:21;-7.60;99.90
11824;DHT22;5969;50.780;7.726;2022-12-18T06:13:50;-7.60;99.90
11824;DHT22;5969;50.780;7.726;2022-12-18T06:16:17;-7.60;99.90
11824;DHT22;5969;50.780;7.726;2022-12-18T06:18:45;-7.50;99.90
11824;DHT22;5969;50.780;7.726;2022-12-18T06:21:12;-7.50;99.90
11824;DHT22;5969;50.780;7.726;2022-12-18T06:23:39;-7.40;99.90
11824;DHT22;5969;50.780;7.726;2022-12-18T06:26:09;-7.40;99.90
11824;DHT22;5969;50.780;7.726;2022-12-18T06:28:36;-7.40;99.90
11824;DHT22;5969;50.780;7.726;2022-12-18T06:31:04;-7.30;99.90
11824;DHT22;5969;50.780;7.726;2022-12-18T06:33:31;-7.30;99.90
11824;DHT22;5969;50.780;7.726;2022-12-18T06:36:02;-7.30;99.90
11824;DHT22;5969;50.780;7.726;2022-12-18T06:38:30;-7.30;99.90
11824;DHT22;5969;50.780;7.726;2022-12-18T06:40:57;-7.30;99.90
11824;DHT22;5969;50.780;7.726;2022-12-18T06:43:24;-7.30;99.90
11824;DHT22;5969;50.780;7.726;2022-12-18T06:45:51;-7.20;99.90
11824;DHT22;5969;50.780;7.726;2022-12-18T06:48:18;-7.20;99.90
11824;DHT22;5969;50.780;7.726;2022-12-18T06:50:45;-7.10;99.90
11824;DHT22;5969;50.780;7.726;2022-12-18T06:53:14;-7.10;99.90
11824;DHT22;5969;50.780;7.726;2022-12-18T06:55:41;-7.00;99.90
11824;DHT22;5969;50.780;7.726;2022-12-18T06:58:07;-7.10;99.90
11824;DHT22;5969;50.780;7.726;2022-12-18T07:00:35;-7.00;99.90
11824;DHT22;5969;50.780;7.726;2022-12-18T07:03:02;-7.00;99.90
11824;DHT22;5969;50.780;7.726;2022-12-18T07:05:29;-7.00;99.90
11824;DHT22;5969;50.780;7.726;2022-12-18T07:07:56;-7.00;99.90
11824;DHT22;5969;50.780;7.726;2022-12-18T07:10:24;-7.00;99.90
11824;DHT22;5969;50.780;7.726;2022-12-18T07:12:51;-6.90;99.90
11824;DHT22;5969;50.780;7.726;2022-12-18T07:15:18;-6.90;99.90
11824;DHT22;5969;50.780;7.726;2022-12-18T07:17:45;-6.90;99.90
11824;DHT22;5969;50.780;7.726;2022-12-18T07:20:12;-6.80;99.90
11824;DHT22;5969;50.780;7.726;2022-12-18T07:22:38;-6.80;99.90
11824;DHT22;5969;50.780;7.726;2022-12-18T07:25:06;-6.70;99.90
11824;DHT22;5969;50.780;7.726;2022-12-18T07:27:35;-6.70;99.90
11824;DHT22;5969;50.780;7.726;2022-12-18T07:30:02;-6.70;99.90
11824;DHT22;5969;50.780;7.726;2022-12-18T07:32:33;-6.70;99.90
11824;DHT22;5969;50.780;7.726;2022-12-18T07:35:00;-6.60;99.90
11824;DHT22;5969;50.780;7.726;2022-12-18T07:37:27;-6.70;99.90
11824;DHT22;5969;50.780;7.726;2022-12-18T07:39:57;-6.70;99.90
11824;DHT22;5969;50.780;7.726;2022-12-18T07:42:24;-6.80;99.90
11824;DHT22;5969;50.780;7.726;2022-12-18T07:45:02;-6.80;99.90
11824;DHT22;5969;50.780;7.726;2022-12-18T07:47:30;-6.70;99.90
11824;DHT22;5969;50.780;7.726;2022-12-18T07:49:56;-6.80;99.90
11824;DHT22;5969;50.780;7.726;2022-12-18T07:52:23;-6.70;99.90
11824;DHT22;5969;50.780;7.726;2022-12-18T07:54:50;-6.70;99.90
11824;DHT22;5969;50.780;7.726;2022-12-18T07:57:17;-6.60;99.90
11824;DHT22;5969;50.780;7.726;2022-12-18T07:59:44;-6.60;99.90
11824;DHT22;5969;50.780;7.726;2022-12-18T08:02:12;-6.50;99.90
11824;DHT22;5969;50.780;7.726;2022-12-18T08:04:39;-6.50;99.90
11824;DHT22;5969;50.780;7.726;2022-12-18T08:07:06;-6.50;99.90
11824;DHT22;5969;50.780;7.726;2022-12-18T08:09:33;-6.50;99.90
11824;DHT22;5969;50.780;7.726;2022-12-18T08:11:59;-6.50;99.90
11824;DHT22;5969;50.780;7.726;2022-12-18T08:14:29;-6.40;99.90
11824;DHT22;5969;50.780;7.726;2022-12-18T08:16:56;-6.30;99.90
11824;DHT22;5969;50.780;7.726;2022-12-18T08:19:24;-6.30;99.90
11824;DHT22;5969;50.780;7.726;2022-12-18T08:21:51;-6.10;99.90
11824;DHT22;5969;50.780;7.726;2022-12-18T08:24:18;-6.20;99.90
11824;DHT22;5969;50.780;7.726;2022-12-18T08:26:45;-6.30;99.90
11824;DHT22;5969;50.780;7.726;2022-12-18T08:29:12;-6.30;99.90
11824;DHT22;5969;50.780;7.726;2022-12-18T08:31:39;-6.20;99.90
11824;DHT22;5969;50.780;7.726;2022-12-18T08:34:08;-6.00;99.90
11824;DHT22;5969;50.780;7.726;2022-12-18T08:36:36;-5.80;99.90
11824;DHT22;5969;50.780;7.726;2022-12-18T08:39:03;-5.70;99.90
11824;DHT22;5969;50.780;7.726;2022-12-18T08:41:29;-5.60;99.90
11824;DHT22;5969;50.780;7.726;2022-12-18T08:43:56;-5.40;99.90
11824;DHT22;5969;50.780;7.726;2022-12-18T08:46:41;-5.40;99.90
11824;DHT22;5969;50.780;7.726;2022-12-18T08:49:10;-5.40;99.90
11824;DHT22;5969;50.780;7.726;2022-12-18T08:51:39;-5.30;99.90
11824;DHT22;5969;50.780;7.726;2022-12-18T08:54:07;-5.20;99.90
11824;DHT22;5969;50.780;7.726;2022-12-18T08:56:34;-5.10;99.90
11824;DHT22;5969;50.780;7.726;2022-12-18T08:59:01;-5.10;99.90
11824;DHT22;5969;50.780;7.726;2022-12-18T09:01:29;-5.00;99.90
11824;DHT22;5969;50.780;7.726;2022-12-18T09:03:56;-4.90;99.90
11824;DHT22;5969;50.780;7.726;2022-12-18T09:06:24;-4.80;99.90
11824;DHT22;5969;50.780;7.726;2022-12-18T09:08:57;-4.70;99.90
11824;DHT22;5969;50.780;7.726;2022-12-18T09:11:26;-4.60;99.90
11824;DHT22;5969;50.780;7.726;2022-12-18T09:13:53;-4.50;99.90
11824;DHT22;5969;50.780;7.726;2022-12-18T09:16:21;-4.30;99.90
11824;DHT22;5969;50.780;7.726;2022-12-18T09:18:48;-4.20;99.90
11824;DHT22;5969;50.780;7.726;2022-12-18T09:21:16;-3.90;99.90
11824;DHT22;5969;50.780;7.726;2022-12-18T09:23:44;-3.70;99.90
11824;DHT22;5969;50.780;7.726;2022-12-18T09:26:12;-3.50;99.90
11824;DHT22;5969;50.780;7.726;2022-12-18T09:28:39;-3.40;99.90
11824;DHT22;5969;50.780;7.726;2022-12-18T09:31:07;-3.30;99.90
11824;DHT22;5969;50.780;7.726;2022-12-18T09:33:34;-3.20;99.90
11824;DHT22;5969;50.780;7.726;2022-12-18T09:36:02;-3.20;99.90
11824;DHT22;5969;50.780;7.726;2022-12-18T09:38:30;-3.00;99.90
11824;DHT22;5969;50.780;7.726;2022-12-18T09:41:00;-3.00;99.90
11824;DHT22;5969;50.780;7.726;2022-12-18T09:43:35;-2.90;99.90
11824;DHT22;5969;50.780;7.726;2022-12-18T09:46:07;-2.80;99.90
11824;DHT22;5969;50.780;7.726;2022-12-18T09:48:36;-2.70;99.90
11824;DHT22;5969;50.780;7.726;2022-12-18T09:51:11;-2.50;99.90
11824;DHT22;5969;50.780;7.726;2022-12-18T09:53:40;-2.30;99.90
11824;DHT22;5969;50.780;7.726;2022-12-18T09:56:14;-2.20;99.90
11824;DHT22;5969;50.780;7.726;2022-12-18T09:58:46;-2.00;99.90
11824;DHT22;5969;50.780;7.726;2022-12-18T10:01:17;-1.70;99.90
11824;DHT22;5969;50.780;7.726;2022-12-18T10:03:44;-1.50;99.90
11824;DHT22;5969;50.780;7.726;2022-12-18T10:06:15;-1.40;99.90
11824;DHT22;5969;50.780;7.726;2022-12-18T10:08:49;-1.20;99.90
11824;DHT22;5969;50.780;7.726;2022-12-18T10:11:34;-1.00;99.90
11824;DHT22;5969;50.780;7.726;2022-12-18T10:14:10;-0.80;99.90
11824;DHT22;5969;50.780;7.726;2022-12-18T10:16:47;-0.60;99.90
11824;DHT22;5969;50.780;7.726;2022-12-18T10:19:31;-0.40;99.90
11824;DHT22;5969;50.780;7.726;2022-12-18T10:22:07;-0.20;99.90
11824;DHT22;5969;50.780;7.726;2022-12-18T10:24:40;-0.10;99.90
11824;DHT22;5969;50.780;7.726;2022-12-18T10:27:13;-0.10;99.90
11824;DHT22;5969;50.780;7.726;2022-12-18T10:29:43;0.00;99.90
11824;DHT22;5969;50.780;7.726;2022-12-18T10:32:14;0.10;99.90
11824;DHT22;5969;50.780;7.726;2022-12-18T10:34:45;0.30;99.90
11824;DHT22;5969;50.780;7.726;2022-12-18T10:37:15;0.40;99.90
11824;DHT22;5969;50.780;7.726;2022-12-18T10:39:44;0.60;99.90
11824;DHT22;5969;50.780;7.726;2022-12-18T10:42:16;0.70;99.90
11824;DHT22;5969;50.780;7.726;2022-12-18T10:44:46;0.70;99.90
11824;DHT22;5969;50.780;7.726;2022-12-18T10:47:26;0.80;99.90
11824;DHT22;5969;50.780;7.726;2022-12-18T10:49:53;1.00;99.90
11824;DHT22;5969;50.780;7.726;2022-12-18T10:52:23;1.10;99.90
11824;DHT22;5969;50.780;7.726;2022-12-18T10:54:52;1.30;99.90
11824;DHT22;5969;50.780;7.726;2022-12-18T10:57:34;1.40;99.90
11824;DHT22;5969;50.780;7.726;2022-12-18T11:00:22;1.60;99.90
11824;DHT22;5969;50.780;7.726;2022-12-18T11:02:50;1.80;99.90
11824;DHT22;5969;50.780;7.726;2022-12-18T11:05:28;1.90;99.90
11824;DHT22;5969;50.780;7.726;2022-12-18T11:07:56;2.10;99.90
11824;DHT22;5969;50.780;7.726;2022-12-18T11:10:28;2.10;99.90
11824;DHT22;5969;50.780;7.726;2022-12-18T11:12:55;2.30;99.90
11824;DHT22;5969;50.780;7.726;2022-12-18T11:15:26;2.40;99.90
11824;DHT22;5969;50.780;7.726;2022-12-18T11:17:55;2.80;99.90
11824;DHT22;5969;50.780;7.726;2022-12-18T11:20:30;3.20;99.90
11824;DHT22;5969;50.780;7.726;2022-12-18T11:22:59;4.00;99.90
11824;DHT22;5969;50.780;7.726;2022-12-18T11:25:27;4.90;99.90
11824;DHT22;5969;50.780;7.726;2022-12-18T11:27:56;5.30;99.90
11824;DHT22;5969;50.780;7.726;2022-12-18T11:30:27;5.70;99.90
11824;DHT22;5969;50.780;7.726;2022-12-18T11:33:02;5.70;99.90
11824;DHT22;5969;50.780;7.726;2022-12-18T11:35:40;5.80;99.90
11824;DHT22;5969;50.780;7.726;2022-12-18T11:38:16;5.70;99.90
11824;DHT22;5969;50.780;7.726;2022-12-18T11:40:47;5.80;99.90
11824;DHT22;5969;50.780;7.726;2022-12-18T11:43:20;5.80;99.90
11824;DHT22;5969;50.780;7.726;2022-12-18T11:45:53;5.60;99.90
11824;DHT22;5969;50.780;7.726;2022-12-18T11:48:24;5.20;99.90
11824;DHT22;5969;50.780;7.726;2022-12-18T11:50:54;5.20;99.90
11824;DHT22;5969;50.780;7.726;2022-12-18T11:53:22;4.80;99.90
11824;DHT22;5969;50.780;7.726;2022-12-18T11:56:00;4.70;99.90
11824;DHT22;5969;50.780;7.726;2022-12-18T11:58:43;4.00;99.90
11824;DHT22;5969;50.780;7.726;2022-12-18T12:01:24;4.10;99.90
11824;DHT22;5969;50.780;7.726;2022-12-18T12:06:48;3.70;99.90
11824;DHT22;5969;50.780;7.726;2022-12-18T12:09:24;3.60;99.90
11824;DHT22;5969;50.780;7.726;2022-12-18T12:12:04;3.60;99.90
11824;DHT22;5969;50.780;7.726;2022-12-18T12:14:42;3.20;99.90
11824;DHT22;5969;50.780;7.726;2022-12-18T12:17:30;2.80;99.90
11824;DHT22;5969;50.780;7.726;2022-12-18T12:20:13;2.60;99.90
11824;DHT22;5969;50.780;7.726;2022-12-18T12:22:46;2.10;99.90
11824;DHT22;5969;50.780;7.726;2022-12-18T12:25:21;1.70;99.90
11824;DHT22;5969;50.780;7.726;2022-12-18T12:28:01;1.60;99.90
11824;DHT22;5969;50.780;7.726;2022-12-18T12:30:35;1.40;99.90
11824;DHT22;5969;50.780;7.726;2022-12-18T12:33:18;0.80;99.90
11824;DHT22;5969;50.780;7.726;2022-12-18T12:36:00;0.50;99.90
11824;DHT22;5969;50.780;7.726;2022-12-18T12:38:35;0.20;99.90
11824;DHT22;5969;50.780;7.726;2022-12-18T12:41:05;0.10;99.90
11824;DHT22;5969;50.780;7.726;2022-12-18T12:43:56;0.10;99.90
11824;DHT22;5969;50.780;7.726;2022-12-18T12:46:24;-0.10;99.90
11824;DHT22;5969;50.780;7.726;2022-12-18T12:48:55;-0.10;99.90
11824;DHT22;5969;50.780;7.726;2022-12-18T12:51:26;0.00;99.90
11824;DHT22;5969;50.780;7.726;2022-12-18T12:53:56;0.10;99.90
11824;DHT22;5969;50.780;7.726;2022-12-18T12:56:26;0.30;99.90
11824;DHT22;5969;50.780;7.726;2022-12-18T12:59:00;0.30;99.90
11824;DHT22;5969;50.780;7.726;2022-12-18T13:01:34;0.30;99.90
11824;DHT22;5969;50.780;7.726;2022-12-18T13:04:12;0.20;99.90
11824;DHT22;5969;50.780;7.726;2022-12-18T13:06:45;0.00;99.90
11824;DHT22;5969;50.780;7.726;2022-12-18T13:09:12;-0.10;99.90
11824;DHT22;5969;50.780;7.726;2022-12-18T13:11:40;-0.10;99.90
11824;DHT22;5969;50.780;7.726;2022-12-18T13:14:28;-0.10;99.90
11824;DHT22;5969;50.780;7.726;2022-12-18T13:17:15;-0.20;99.90
11824;DHT22;5969;50.780;7.726;2022-12-18T13:19:43;-0.30;99.90
11824;DHT22;5969;50.780;7.726;2022-12-18T13:22:21;-0.30;99.90
11824;DHT22;5969;50.780;7.726;2022-12-18T13:24:49;-0.40;99.90
11824;DHT22;5969;50.780;7.726;2022-12-18T13:27:52;-0.30;99.90
11824;DHT22;5969;50.780;7.726;2022-12-18T13:30:42;-0.40;99.90
11824;DHT22;5969;50.780;7.726;2022-12-18T13:36:17;-0.40;99.90
11824;DHT22;5969;50.780;7.726;2022-12-18T13:42:34;-0.50;99.90
11824;DHT22;5969;50.780;7.726;2022-12-18T13:45:39;-0.40;99.90
11824;DHT22;5969;50.780;7.726;2022-12-18T13:48:21;-0.40;99.90
11824;DHT22;5969;50.780;7.726;2022-12-18T13:50:53;-0.30;99.90
11824;DHT22;5969;50.780;7.726;2022-12-18T13:53:24;-0.30;99.90
11824;DHT22;5969;50.780;7.726;2022-12-18T13:55:52;-0.40;99.90
11824;DHT22;5969;50.780;7.726;2022-12-18T13:58:19;-0.40;99.90
11824;DHT22;5969;50.780;7.726;2022-12-18T14:00:46;-0.40;99.90
11824;DHT22;5969;50.780;7.726;2022-12-18T14:03:19;-0.40;99.90
11824;DHT22;5969;50.780;7.726;2022-12-18T14:05:53;-0.40;99.90
11824;DHT22;5969;50.780;7.726;2022-12-18T14:08:22;-0.50;99.90
11824;DHT22;5969;50.780;7.726;2022-12-18T14:10:51;-0.50;99.90
11824;DHT22;5969;50.780;7.726;2022-12-18T14:13:23;-0.70;99.90
11824;DHT22;5969;50.780;7.726;2022-12-18T14:15:51;-0.70;99.90
11824;DHT22;5969;50.780;7.726;2022-12-18T14:18:21;-0.90;99.90
11824;DHT22;5969;50.780;7.726;2022-12-18T14:20:50;-0.90;99.90
11824;DHT22;5969;50.780;7.726;2022-12-18T14:23:30;-0.90;99.90
11824;DHT22;5969;50.780;7.726;2022-12-18T14:25:58;-0.90;99.90
11824;DHT22;5969;50.780;7.726;2022-12-18T14:28:25;-1.00;99.90
11824;DHT22;5969;50.780;7.726;2022-12-18T14:30:56;-1.00;99.90
11824;DHT22;5969;50.780;7.726;2022-12-18T14:33:24;-1.00;99.90
11824;DHT22;5969;50.780;7.726;2022-12-18T14:35:57;-1.00;99.90
11824;DHT22;5969;50.780;7.726;2022-12-18T14:38:30;-1.20;99.90
11824;DHT22;5969;50.780;7.726;2022-12-18T14:40:59;-1.20;99.90
11824;DHT22;5969;50.780;7.726;2022-12-18T14:43:27;-1.30;99.90
11824;DHT22;5969;50.780;7.726;2022-12-18T14:45:55;-1.40;99.90
11824;DHT22;5969;50.780;7.726;2022-12-18T14:48:35;-1.50;99.90
11824;DHT22;5969;50.780;7.726;2022-12-18T14:51:04;-1.60;99.90
11824;DHT22;5969;50.780;7.726;2022-12-18T14:53:42;-1.60;99.90
11824;DHT22;5969;50.780;7.726;2022-12-18T14:56:14;-1.60;99.90
11824;DHT22;5969;50.780;7.726;2022-12-18T14:58:50;-1.70;99.90
11824;DHT22;5969;50.780;7.726;2022-12-18T15:01:24;-1.70;99.90
11824;DHT22;5969;50.780;7.726;2022-12-18T15:03:52;-1.80;99.90
11824;DHT22;5969;50.780;7.726;2022-12-18T15:06:27;-1.80;99.90
11824;DHT22;5969;50.780;7.726;2022-12-18T15:08:55;-1.80;99.90
11824;DHT22;5969;50.780;7.726;2022-12-18T15:11:28;-1.80;99.90
11824;DHT22;5969;50.780;7.726;2022-12-18T15:13:57;-1.80;99.90
11824;DHT22;5969;50.780;7.726;2022-12-18T15:16:24;-1.80;99.90
11824;DHT22;5969;50.780;7.726;2022-12-18T15:18:52;-1.90;99.90
11824;DHT22;5969;50.780;7.726;2022-12-18T15:21:20;-2.00;99.90
11824;DHT22;5969;50.780;7.726;2022-12-18T15:23:48;-2.00;99.90
11824;DHT22;5969;50.780;7.726;2022-12-18T15:26:19;-2.10;99.90
11824;DHT22;5969;50.780;7.726;2022-12-18T15:28:48;-2.00;99.90
11824;DHT22;5969;50.780;7.726;2022-12-18T15:31:24;-2.10;99.90
11824;DHT22;5969;50.780;7.726;2022-12-18T15:34:09;-2.10;99.90
11824;DHT22;5969;50.780;7.726;2022-12-18T15:36:36;-2.10;99.90
11824;DHT22;5969;50.780;7.726;2022-12-18T15:39:03;-2.10;99.90
11824;DHT22;5969;50.780;7.726;2022-12-18T15:41:33;-2.00;99.90
11824;DHT22;5969;50.780;7.726;2022-12-18T15:44:00;-2.00;99.90
11824;DHT22;5969;50.780;7.726;2022-12-18T15:46:26;-2.00;99.90
11824;DHT22;5969;50.780;7.726;2022-12-18T15:48:54;-2.10;99.90
11824;DHT22;5969;50.780;7.726;2022-12-18T15:51:23;-2.10;99.90
11824;DHT22;5969;50.780;7.726;2022-12-18T15:53:52;-2.20;99.90
11824;DHT22;5969;50.780;7.726;2022-12-18T15:56:20;-2.20;99.90
11824;DHT22;5969;50.780;7.726;2022-12-18T15:59:09;-2.20;99.90
11824;DHT22;5969;50.780;7.726;2022-12-18T16:01:36;-2.00;99.90
11824;DHT22;5969;50.780;7.726;2022-12-18T16:04:03;-2.10;99.90
11824;DHT22;5969;50.780;7.726;2022-12-18T16:06:31;-2.10;99.90
11824;DHT22;5969;50.780;7.726;2022-12-18T16:08:58;-2.20;99.90
11824;DHT22;5969;50.780;7.726;2022-12-18T16:11:27;-2.20;99.90
11824;DHT22;5969;50.780;7.726;2022-12-18T16:14:08;-2.20;99.90
11824;DHT22;5969;50.780;7.726;2022-12-18T16:16:38;-2.30;99.90
11824;DHT22;5969;50.780;7.726;2022-12-18T16:19:05;-2.30;99.90